sensor_id;sensor_type;location;lat;lon;timestamp;P1;durP1;ratioP1;P2;durP2;ratioP2
71655;SDS011;59497;48.798;8.816;2023-04-25T00:01:46;4.63;;;1.67;;
71655;SDS011;59497;48.798;8.816;2023-04-25T00:04:11;2.33;;;1.60;;
71655;SDS011;59497;48.798;8.816;2023-04-25T00:06:37;2.53;;;1.97;;
71655;SDS011;59497;48.798;8.816;2023-04-25T00:09:05;2.47;;;1.47;;
71655;SDS011;59497;48.798;8.816;2023-04-25T00:11:36;3.33;;;1.52;;
71655;SDS011;59497;48.798;8.816;2023-04-25T00:14:01;3.15;;;1.63;;
71655;SDS011;59497;48.798;8.816;2023-04-25T00:16:27;3.50;;;1.60;;
71655;SDS011;59497;48.798;8.816;2023-04-25T00:18:53;3.60;;;1.70;;
71655;SDS011;59497;48.798;8.816;2023-04-25T00:21:19;2.90;;;1.80;;
71655;SDS011;59497;48.798;8.816;2023-04-25T00:23:45;3.03;;;1.83;;
71655;SDS011;59497;48.798;8.816;2023-04-25T00:26:10;3.93;;;1.60;;
71655;SDS011;59497;48.798;8.816;2023-04-25T00:28:36;2.00;;;1.75;;
71655;SDS011;59497;48.798;8.816;2023-04-25T00:31:02;3.17;;;1.77;;
71655;SDS011;59497;48.798;8.816;2023-04-25T00:33:27;3.43;;;2.00;;
71655;SDS011;59497;48.798;8.816;2023-04-25T00:35:52;3.10;;;2.20;;
71655;SDS011;59497;48.798;8.816;2023-04-25T00:38:18;2.90;;;2.00;;
71655;SDS011;59497;48.798;8.816;2023-04-25T00:40:43;3.45;;;1.90;;
71655;SDS011;59497;48.798;8.816;2023-04-25T00:43:08;4.60;;;2.30;;
71655;SDS011;59497;48.798;8.816;2023-04-25T00:45:33;3.80;;;2.20;;
71655;SDS011;59497;48.798;8.816;2023-04-25T00:48:02;2.97;;;1.80;;
71655;SDS011;59497;48.798;8.816;2023-04-25T00:50:28;4.03;;;2.43;;
71655;SDS011;59497;48.798;8.816;2023-04-25T00:52:53;4.23;;;2.40;;
71655;SDS011;59497;48.798;8.816;2023-04-25T00:55:18;3.73;;;2.27;;
71655;SDS011;59497;48.798;8.816;2023-04-25T00:57:44;6.05;;;2.22;;
71655;SDS011;59497;48.798;8.816;2023-04-25T01:00:10;3.70;;;2.33;;
71655;SDS011;59497;48.798;8.816;2023-04-25T01:02:36;3.65;;;2.70;;
71655;SDS011;59497;48.798;8.816;2023-04-25T01:05:02;3.47;;;2.43;;
71655;SDS011;59497;48.798;8.816;2023-04-25T01:07:27;4.60;;;2.13;;
71655;SDS011;59497;48.798;8.816;2023-04-25T01:09:52;3.60;;;1.75;;
71655;SDS011;59497;48.798;8.816;2023-04-25T01:12:17;4.60;;;2.13;;
71655;SDS011;59497;48.798;8.816;2023-04-25T01:14:43;3.17;;;2.30;;
71655;SDS011;59497;48.798;8.816;2023-04-25T01:17:09;3.90;;;2.13;;
71655;SDS011;59497;48.798;8.816;2023-04-25T01:19:34;1.85;;;1.40;;
71655;SDS011;59497;48.798;8.816;2023-04-25T01:22:00;3.00;;;2.00;;
71655;SDS011;59497;48.798;8.816;2023-04-25T01:24:25;6.37;;;1.90;;
71655;SDS011;59497;48.798;8.816;2023-04-25T01:26:51;3.92;;;1.60;;
71655;SDS011;59497;48.798;8.816;2023-04-25T01:29:17;5.53;;;1.60;;
71655;SDS011;59497;48.798;8.816;2023-04-25T01:31:43;3.58;;;1.85;;
71655;SDS011;59497;48.798;8.816;2023-04-25T01:34:09;3.00;;;1.80;;
71655;SDS011;59497;48.798;8.816;2023-04-25T01:36:34;3.50;;;1.30;;
71655;SDS011;59497;48.798;8.816;2023-04-25T01:39:00;2.55;;;1.60;;
71655;SDS011;59497;48.798;8.816;2023-04-25T01:41:25;1.97;;;1.57;;
71655;SDS011;59497;48.798;8.816;2023-04-25T01:43:50;2.97;;;1.67;;
71655;SDS011;59497;48.798;8.816;2023-04-25T01:46:16;2.33;;;1.50;;
71655;SDS011;59497;48.798;8.816;2023-04-25T01:48:41;2.77;;;1.57;;
71655;SDS011;59497;48.798;8.816;2023-04-25T01:51:06;3.07;;;1.80;;
71655;SDS011;59497;48.798;8.816;2023-04-25T01:53:31;3.13;;;1.60;;
71655;SDS011;59497;48.798;8.816;2023-04-25T01:55:57;2.80;;;1.70;;
71655;SDS011;59497;48.798;8.816;2023-04-25T01:58:22;3.30;;;2.30;;
71655;SDS011;59497;48.798;8.816;2023-04-25T02:00:47;3.47;;;2.13;;
71655;SDS011;59497;48.798;8.816;2023-04-25T02:03:12;2.70;;;1.80;;
71655;SDS011;59497;48.798;8.816;2023-04-25T02:05:37;10.90;;;10.00;;
71655;SDS011;59497;48.798;8.816;2023-04-25T02:08:04;6.38;;;5.13;;
71655;SDS011;59497;48.798;8.816;2023-04-25T02:10:29;3.30;;;2.05;;
71655;SDS011;59497;48.798;8.816;2023-04-25T02:12:55;4.50;;;2.20;;
71655;SDS011;59497;48.798;8.816;2023-04-25T02:15:20;4.33;;;2.00;;
71655;SDS011;59497;48.798;8.816;2023-04-25T02:17:45;3.20;;;1.87;;
71655;SDS011;59497;48.798;8.816;2023-04-25T02:20:10;4.27;;;2.07;;
71655;SDS011;59497;48.798;8.816;2023-04-25T02:22:36;2.83;;;1.97;;
71655;SDS011;59497;48.798;8.816;2023-04-25T02:25:01;3.20;;;2.07;;
71655;SDS011;59497;48.798;8.816;2023-04-25T02:27:27;2.45;;;1.75;;
71655;SDS011;59497;48.798;8.816;2023-04-25T02:29:52;2.50;;;1.63;;
71655;SDS011;59497;48.798;8.816;2023-04-25T02:32:17;2.17;;;1.60;;
71655;SDS011;59497;48.798;8.816;2023-04-25T02:34:42;3.07;;;1.70;;
71655;SDS011;59497;48.798;8.816;2023-04-25T02:37:08;2.67;;;1.70;;
71655;SDS011;59497;48.798;8.816;2023-04-25T02:39:33;3.27;;;2.03;;
71655;SDS011;59497;48.798;8.816;2023-04-25T02:41:58;3.57;;;1.77;;
71655;SDS011;59497;48.798;8.816;2023-04-25T02:44:23;2.20;;;1.60;;
71655;SDS011;59497;48.798;8.816;2023-04-25T02:46:48;3.00;;;1.90;;
71655;SDS011;59497;48.798;8.816;2023-04-25T02:49:13;3.43;;;1.90;;
71655;SDS011;59497;48.798;8.816;2023-04-25T02:51:39;2.83;;;1.63;;
71655;SDS011;59497;48.798;8.816;2023-04-25T02:54:04;4.10;;;2.00;;
71655;SDS011;59497;48.798;8.816;2023-04-25T02:56:29;2.67;;;1.87;;
71655;SDS011;59497;48.798;8.816;2023-04-25T02:58:55;5.87;;;2.27;;
71655;SDS011;59497;48.798;8.816;2023-04-25T03:01:20;3.58;;;2.30;;
71655;SDS011;59497;48.798;8.816;2023-04-25T03:03:45;3.50;;;2.50;;
71655;SDS011;59497;48.798;8.816;2023-04-25T03:06:10;3.07;;;2.00;;
71655;SDS011;59497;48.798;8.816;2023-04-25T03:08:35;3.20;;;1.90;;
71655;SDS011;59497;48.798;8.816;2023-04-25T03:11:01;3.47;;;2.13;;
71655;SDS011;59497;48.798;8.816;2023-04-25T03:13:26;3.07;;;2.27;;
71655;SDS011;59497;48.798;8.816;2023-04-25T03:15:52;3.87;;;2.53;;
71655;SDS011;59497;48.798;8.816;2023-04-25T03:18:17;3.40;;;2.50;;
71655;SDS011;59497;48.798;8.816;2023-04-25T03:20:42;6.57;;;2.37;;
71655;SDS011;59497;48.798;8.816;2023-04-25T03:23:07;4.07;;;2.27;;
71655;SDS011;59497;48.798;8.816;2023-04-25T03:25:33;3.43;;;2.17;;
71655;SDS011;59497;48.798;8.816;2023-04-25T03:27:58;5.73;;;2.87;;
71655;SDS011;59497;48.798;8.816;2023-04-25T03:30:23;3.77;;;2.83;;
71655;SDS011;59497;48.798;8.816;2023-04-25T03:32:48;4.37;;;2.40;;
71655;SDS011;59497;48.798;8.816;2023-04-25T03:35:13;4.47;;;2.30;;
71655;SDS011;59497;48.798;8.816;2023-04-25T03:37:39;3.90;;;2.50;;
71655;SDS011;59497;48.798;8.816;2023-04-25T03:40:05;5.47;;;2.50;;
71655;SDS011;59497;48.798;8.816;2023-04-25T03:42:31;3.85;;;2.38;;
71655;SDS011;59497;48.798;8.816;2023-04-25T03:44:56;4.40;;;2.50;;
71655;SDS011;59497;48.798;8.816;2023-04-25T03:47:21;5.75;;;3.05;;
71655;SDS011;59497;48.798;8.816;2023-04-25T03:49:46;4.37;;;3.03;;
71655;SDS011;59497;48.798;8.816;2023-04-25T03:52:11;5.43;;;3.00;;
71655;SDS011;59497;48.798;8.816;2023-04-25T03:54:36;6.03;;;3.07;;
71655;SDS011;59497;48.798;8.816;2023-04-25T03:57:02;5.10;;;2.75;;
71655;SDS011;59497;48.798;8.816;2023-04-25T03:59:27;3.93;;;2.60;;
71655;SDS011;59497;48.798;8.816;2023-04-25T04:01:52;5.60;;;3.00;;
71655;SDS011;59497;48.798;8.816;2023-04-25T04:04:17;4.10;;;2.60;;
71655;SDS011;59497;48.798;8.816;2023-04-25T04:06:42;3.50;;;2.40;;
71655;SDS011;59497;48.798;8.816;2023-04-25T04:09:07;4.63;;;2.60;;
71655;SDS011;59497;48.798;8.816;2023-04-25T04:11:36;5.17;;;2.60;;
71655;SDS011;59497;48.798;8.816;2023-04-25T04:14:03;4.65;;;2.92;;
71655;SDS011;59497;48.798;8.816;2023-04-25T04:16:28;4.30;;;2.80;;
71655;SDS011;59497;48.798;8.816;2023-04-25T04:18:53;4.50;;;3.03;;
71655;SDS011;59497;48.798;8.816;2023-04-25T04:21:18;4.23;;;2.90;;
71655;SDS011;59497;48.798;8.816;2023-04-25T04:23:43;3.70;;;2.43;;
71655;SDS011;59497;48.798;8.816;2023-04-25T04:26:09;3.30;;;2.70;;
71655;SDS011;59497;48.798;8.816;2023-04-25T04:28:35;5.38;;;2.75;;
71655;SDS011;59497;48.798;8.816;2023-04-25T04:31:00;4.85;;;2.90;;
71655;SDS011;59497;48.798;8.816;2023-04-25T04:33:27;5.33;;;3.17;;
71655;SDS011;59497;48.798;8.816;2023-04-25T04:35:53;4.60;;;3.00;;
71655;SDS011;59497;48.798;8.816;2023-04-25T04:38:20;4.35;;;2.83;;
71655;SDS011;59497;48.798;8.816;2023-04-25T04:40:46;3.30;;;2.70;;
71655;SDS011;59497;48.798;8.816;2023-04-25T04:43:12;4.95;;;2.92;;
71655;SDS011;59497;48.798;8.816;2023-04-25T04:45:38;4.20;;;2.70;;
71655;SDS011;59497;48.798;8.816;2023-04-25T04:48:05;5.30;;;2.83;;
71655;SDS011;59497;48.798;8.816;2023-04-25T04:50:30;8.18;;;5.45;;
71655;SDS011;59497;48.798;8.816;2023-04-25T04:52:57;8.30;;;3.10;;
71655;SDS011;59497;48.798;8.816;2023-04-25T04:55:22;3.27;;;2.47;;
71655;SDS011;59497;48.798;8.816;2023-04-25T04:57:47;3.50;;;2.07;;
71655;SDS011;59497;48.798;8.816;2023-04-25T05:00:13;3.67;;;2.40;;
71655;SDS011;59497;48.798;8.816;2023-04-25T05:02:38;3.73;;;2.70;;
71655;SDS011;59497;48.798;8.816;2023-04-25T05:05:04;3.57;;;2.80;;
71655;SDS011;59497;48.798;8.816;2023-04-25T05:07:29;3.47;;;2.45;;
71655;SDS011;59497;48.798;8.816;2023-04-25T05:09:54;4.23;;;2.63;;
71655;SDS011;59497;48.798;8.816;2023-04-25T05:12:20;3.67;;;2.50;;
71655;SDS011;59497;48.798;8.816;2023-04-25T05:14:45;4.40;;;2.00;;
71655;SDS011;59497;48.798;8.816;2023-04-25T05:17:10;5.83;;;2.50;;
71655;SDS011;59497;48.798;8.816;2023-04-25T05:19:35;4.40;;;2.70;;
71655;SDS011;59497;48.798;8.816;2023-04-25T05:22:01;5.03;;;3.10;;
71655;SDS011;59497;48.798;8.816;2023-04-25T05:24:26;3.93;;;2.67;;
71655;SDS011;59497;48.798;8.816;2023-04-25T05:26:51;3.80;;;2.90;;
71655;SDS011;59497;48.798;8.816;2023-04-25T05:29:16;4.20;;;3.10;;
71655;SDS011;59497;48.798;8.816;2023-04-25T05:31:42;5.43;;;2.90;;
71655;SDS011;59497;48.798;8.816;2023-04-25T05:34:07;4.67;;;3.00;;
71655;SDS011;59497;48.798;8.816;2023-04-25T05:36:32;3.77;;;2.53;;
71655;SDS011;59497;48.798;8.816;2023-04-25T05:38:57;3.33;;;2.30;;
71655;SDS011;59497;48.798;8.816;2023-04-25T05:41:22;3.83;;;2.50;;
71655;SDS011;59497;48.798;8.816;2023-04-25T05:43:48;4.43;;;2.67;;
71655;SDS011;59497;48.798;8.816;2023-04-25T05:46:14;3.65;;;2.70;;
71655;SDS011;59497;48.798;8.816;2023-04-25T05:48:40;4.80;;;2.80;;
71655;SDS011;59497;48.798;8.816;2023-04-25T05:51:05;5.80;;;3.33;;
71655;SDS011;59497;48.798;8.816;2023-04-25T05:53:30;6.20;;;4.20;;
71655;SDS011;59497;48.798;8.816;2023-04-25T05:55:56;9.73;;;6.00;;
71655;SDS011;59497;48.798;8.816;2023-04-25T05:58:21;11.47;;;6.63;;
71655;SDS011;59497;48.798;8.816;2023-04-25T06:00:46;4.17;;;2.90;;
71655;SDS011;59497;48.798;8.816;2023-04-25T06:03:11;5.93;;;3.73;;
71655;SDS011;59497;48.798;8.816;2023-04-25T06:05:39;5.40;;;2.47;;
71655;SDS011;59497;48.798;8.816;2023-04-25T06:08:04;4.20;;;2.90;;
71655;SDS011;59497;48.798;8.816;2023-04-25T06:10:29;2.97;;;2.40;;
71655;SDS011;59497;48.798;8.816;2023-04-25T06:12:55;6.00;;;2.83;;
71655;SDS011;59497;48.798;8.816;2023-04-25T06:15:20;3.83;;;2.33;;
71655;SDS011;59497;48.798;8.816;2023-04-25T06:17:45;4.13;;;2.53;;
71655;SDS011;59497;48.798;8.816;2023-04-25T06:20:10;3.30;;;2.30;;
71655;SDS011;59497;48.798;8.816;2023-04-25T06:22:36;3.67;;;2.37;;
71655;SDS011;59497;48.798;8.816;2023-04-25T06:25:01;2.60;;;1.93;;
71655;SDS011;59497;48.798;8.816;2023-04-25T06:27:28;4.05;;;2.08;;
71655;SDS011;59497;48.798;8.816;2023-04-25T06:29:54;3.40;;;2.00;;
71655;SDS011;59497;48.798;8.816;2023-04-25T06:32:19;3.05;;;2.25;;
71655;SDS011;59497;48.798;8.816;2023-04-25T06:34:44;5.47;;;2.10;;
71655;SDS011;59497;48.798;8.816;2023-04-25T06:37:09;2.83;;;1.93;;
71655;SDS011;59497;48.798;8.816;2023-04-25T06:39:34;3.57;;;1.57;;
71655;SDS011;59497;48.798;8.816;2023-04-25T06:42:00;4.37;;;2.20;;
71655;SDS011;59497;48.798;8.816;2023-04-25T06:44:25;2.30;;;1.53;;
71655;SDS011;59497;48.798;8.816;2023-04-25T06:46:51;5.47;;;2.20;;
71655;SDS011;59497;48.798;8.816;2023-04-25T06:49:16;3.47;;;2.30;;
71655;SDS011;59497;48.798;8.816;2023-04-25T06:51:41;4.10;;;2.27;;
71655;SDS011;59497;48.798;8.816;2023-04-25T06:54:06;3.78;;;2.42;;
71655;SDS011;59497;48.798;8.816;2023-04-25T06:56:31;3.53;;;2.42;;
71655;SDS011;59497;48.798;8.816;2023-04-25T06:58:57;3.83;;;2.10;;
71655;SDS011;59497;48.798;8.816;2023-04-25T07:01:22;3.17;;;2.08;;
71655;SDS011;59497;48.798;8.816;2023-04-25T07:03:47;3.97;;;1.97;;
71655;SDS011;59497;48.798;8.816;2023-04-25T07:06:12;2.27;;;1.80;;
71655;SDS011;59497;48.798;8.816;2023-04-25T07:08:37;3.70;;;2.20;;
71655;SDS011;59497;48.798;8.816;2023-04-25T07:11:02;3.50;;;2.50;;
71655;SDS011;59497;48.798;8.816;2023-04-25T07:13:27;5.73;;;2.43;;
71655;SDS011;59497;48.798;8.816;2023-04-25T07:15:53;4.22;;;2.40;;
71655;SDS011;59497;48.798;8.816;2023-04-25T07:18:18;3.43;;;1.93;;
71655;SDS011;59497;48.798;8.816;2023-04-25T07:20:43;3.73;;;2.13;;
71655;SDS011;59497;48.798;8.816;2023-04-25T07:23:08;3.67;;;2.20;;
71655;SDS011;59497;48.798;8.816;2023-04-25T07:25:33;2.85;;;2.25;;
71655;SDS011;59497;48.798;8.816;2023-04-25T07:28:00;3.78;;;1.95;;
71655;SDS011;59497;48.798;8.816;2023-04-25T07:30:25;5.23;;;2.60;;
71655;SDS011;59497;48.798;8.816;2023-04-25T07:32:50;4.20;;;2.63;;
71655;SDS011;59497;48.798;8.816;2023-04-25T07:35:16;4.13;;;2.80;;
71655;SDS011;59497;48.798;8.816;2023-04-25T07:37:41;3.97;;;2.53;;
71655;SDS011;59497;48.798;8.816;2023-04-25T07:40:06;3.53;;;2.57;;
71655;SDS011;59497;48.798;8.816;2023-04-25T07:42:32;4.93;;;2.92;;
71655;SDS011;59497;48.798;8.816;2023-04-25T07:44:58;4.80;;;2.73;;
71655;SDS011;59497;48.798;8.816;2023-04-25T07:47:23;4.20;;;2.70;;
71655;SDS011;59497;48.798;8.816;2023-04-25T07:49:48;3.93;;;2.60;;
71655;SDS011;59497;48.798;8.816;2023-04-25T07:52:13;4.67;;;2.50;;
71655;SDS011;59497;48.798;8.816;2023-04-25T07:54:39;4.45;;;2.97;;
71655;SDS011;59497;48.798;8.816;2023-04-25T07:57:04;4.90;;;2.77;;
71655;SDS011;59497;48.798;8.816;2023-04-25T07:59:31;5.80;;;3.03;;
71655;SDS011;59497;48.798;8.816;2023-04-25T08:01:56;4.30;;;2.60;;
71655;SDS011;59497;48.798;8.816;2023-04-25T08:04:22;4.83;;;2.90;;
71655;SDS011;59497;48.798;8.816;2023-04-25T08:06:47;5.23;;;3.23;;
71655;SDS011;59497;48.798;8.816;2023-04-25T08:09:12;4.23;;;2.80;;
71655;SDS011;59497;48.798;8.816;2023-04-25T08:11:38;4.00;;;2.60;;
71655;SDS011;59497;48.798;8.816;2023-04-25T08:14:03;3.60;;;2.43;;
71655;SDS011;59497;48.798;8.816;2023-04-25T08:16:28;4.70;;;2.77;;
71655;SDS011;59497;48.798;8.816;2023-04-25T08:18:53;4.50;;;2.60;;
71655;SDS011;59497;48.798;8.816;2023-04-25T08:21:19;4.20;;;2.77;;
71655;SDS011;59497;48.798;8.816;2023-04-25T08:23:45;4.53;;;2.80;;
71655;SDS011;59497;48.798;8.816;2023-04-25T08:26:10;4.33;;;2.90;;
71655;SDS011;59497;48.798;8.816;2023-04-25T08:28:35;5.00;;;2.60;;
71655;SDS011;59497;48.798;8.816;2023-04-25T08:31:00;5.60;;;2.77;;
71655;SDS011;59497;48.798;8.816;2023-04-25T08:33:26;3.33;;;2.40;;
71655;SDS011;59497;48.798;8.816;2023-04-25T08:35:51;4.33;;;2.27;;
71655;SDS011;59497;48.798;8.816;2023-04-25T08:38:16;4.70;;;2.90;;
71655;SDS011;59497;48.798;8.816;2023-04-25T08:40:42;4.50;;;2.50;;
71655;SDS011;59497;48.798;8.816;2023-04-25T08:43:08;4.93;;;2.88;;
71655;SDS011;59497;48.798;8.816;2023-04-25T08:45:38;4.68;;;2.53;;
71655;SDS011;59497;48.798;8.816;2023-04-25T08:48:03;4.20;;;2.40;;
71655;SDS011;59497;48.798;8.816;2023-04-25T08:50:30;2.38;;;1.50;;
71655;SDS011;59497;48.798;8.816;2023-04-25T08:52:55;2.07;;;1.37;;
71655;SDS011;59497;48.798;8.816;2023-04-25T08:55:26;1.47;;;0.60;;
71655;SDS011;59497;48.798;8.816;2023-04-25T08:57:52;2.38;;;0.60;;
71655;SDS011;59497;48.798;8.816;2023-04-25T09:00:19;1.67;;;1.08;;
71655;SDS011;59497;48.798;8.816;2023-04-25T09:02:44;1.00;;;0.67;;
71655;SDS011;59497;48.798;8.816;2023-04-25T09:05:14;1.45;;;0.63;;
71655;SDS011;59497;48.798;8.816;2023-04-25T09:07:39;1.50;;;0.40;;
71655;SDS011;59497;48.798;8.816;2023-04-25T09:10:04;1.00;;;0.50;;
71655;SDS011;59497;48.798;8.816;2023-04-25T09:12:30;0.73;;;0.53;;
71655;SDS011;59497;48.798;8.816;2023-04-25T09:15:03;1.05;;;0.60;;
71655;SDS011;59497;48.798;8.816;2023-04-25T09:17:29;1.42;;;0.52;;
71655;SDS011;59497;48.798;8.816;2023-04-25T09:19:54;1.03;;;0.50;;
71655;SDS011;59497;48.798;8.816;2023-04-25T09:22:19;0.80;;;0.40;;
71655;SDS011;59497;48.798;8.816;2023-04-25T09:24:47;0.70;;;0.50;;
71655;SDS011;59497;48.798;8.816;2023-04-25T09:27:19;15.40;;;1.60;;
71655;SDS011;59497;48.798;8.816;2023-04-25T09:29:44;0.87;;;0.50;;
71655;SDS011;59497;48.798;8.816;2023-04-25T09:34:41;0.45;;;0.40;;
71655;SDS011;59497;48.798;8.816;2023-04-25T09:37:09;0.35;;;0.20;;
71655;SDS011;59497;48.798;8.816;2023-04-25T09:39:35;4.32;;;2.47;;
71655;SDS011;59497;48.798;8.816;2023-04-25T09:42:00;1.80;;;1.27;;
71655;SDS011;59497;48.798;8.816;2023-04-25T09:44:27;1.02;;;0.30;;
71655;SDS011;59497;48.798;8.816;2023-04-25T09:46:52;0.70;;;0.60;;
71655;SDS011;59497;48.798;8.816;2023-04-25T09:49:19;0.40;;;0.20;;
71655;SDS011;59497;48.798;8.816;2023-04-25T09:51:53;0.40;;;0.20;;
71655;SDS011;59497;48.798;8.816;2023-04-25T09:54:18;0.43;;;0.25;;
71655;SDS011;59497;48.798;8.816;2023-04-25T09:56:43;0.30;;;0.10;;
71655;SDS011;59497;48.798;8.816;2023-04-25T09:59:12;0.47;;;0.25;;
71655;SDS011;59497;48.798;8.816;2023-04-25T10:01:37;0.90;;;0.10;;
71655;SDS011;59497;48.798;8.816;2023-04-25T10:04:04;0.60;;;0.28;;
71655;SDS011;59497;48.798;8.816;2023-04-25T10:06:31;0.40;;;0.20;;
71655;SDS011;59497;48.798;8.816;2023-04-25T11:12:03;3.95;;;2.58;;
71655;SDS011;59497;48.798;8.816;2023-04-25T17:49:48;7.63;;;3.70;;
71655;SDS011;59497;48.798;8.816;2023-04-25T17:52:13;6.50;;;3.70;;
71655;SDS011;59497;48.798;8.816;2023-04-25T17:54:38;7.33;;;3.90;;
71655;SDS011;59497;48.798;8.816;2023-04-25T17:57:04;4.90;;;3.07;;
71655;SDS011;59497;48.798;8.816;2023-04-25T17:59:29;6.90;;;3.40;;
71655;SDS011;59497;48.798;8.816;2023-04-25T18:01:54;8.10;;;3.93;;
71655;SDS011;59497;48.798;8.816;2023-04-25T18:04:20;6.45;;;3.15;;
71655;SDS011;59497;48.798;8.816;2023-04-25T18:06:46;7.67;;;3.30;;
71655;SDS011;59497;48.798;8.816;2023-04-25T18:09:11;8.90;;;3.37;;
71655;SDS011;59497;48.798;8.816;2023-04-25T18:11:42;5.68;;;3.10;;
71655;SDS011;59497;48.798;8.816;2023-04-25T18:14:08;6.32;;;3.22;;
71655;SDS011;59497;48.798;8.816;2023-04-25T18:16:38;6.80;;;2.83;;
71655;SDS011;59497;48.798;8.816;2023-04-25T18:19:03;5.75;;;3.05;;
71655;SDS011;59497;48.798;8.816;2023-04-25T18:21:35;6.93;;;3.00;;
71655;SDS011;59497;48.798;8.816;2023-04-25T18:24:01;7.13;;;3.50;;
71655;SDS011;59497;48.798;8.816;2023-04-25T18:26:26;10.47;;;4.37;;
71655;SDS011;59497;48.798;8.816;2023-04-25T18:28:51;11.20;;;3.83;;
71655;SDS011;59497;48.798;8.816;2023-04-25T18:31:16;6.45;;;4.07;;
71655;SDS011;59497;48.798;8.816;2023-04-25T18:33:46;6.35;;;4.00;;
71655;SDS011;59497;48.798;8.816;2023-04-25T18:36:11;6.10;;;3.90;;
71655;SDS011;59497;48.798;8.816;2023-04-25T18:38:37;7.00;;;3.30;;
71655;SDS011;59497;48.798;8.816;2023-04-25T18:41:02;6.73;;;3.77;;
71655;SDS011;59497;48.798;8.816;2023-04-25T18:43:27;6.63;;;3.77;;
71655;SDS011;59497;48.798;8.816;2023-04-25T18:45:52;7.33;;;3.70;;
71655;SDS011;59497;48.798;8.816;2023-04-25T18:48:18;6.37;;;3.20;;
71655;SDS011;59497;48.798;8.816;2023-04-25T18:50:43;7.57;;;3.10;;
71655;SDS011;59497;48.798;8.816;2023-04-25T18:53:10;5.30;;;3.13;;
71655;SDS011;59497;48.798;8.816;2023-04-25T18:55:36;4.82;;;2.70;;
71655;SDS011;59497;48.798;8.816;2023-04-25T18:58:02;6.80;;;3.37;;
71655;SDS011;59497;48.798;8.816;2023-04-25T19:00:27;6.03;;;3.30;;
71655;SDS011;59497;48.798;8.816;2023-04-25T19:02:55;6.43;;;3.40;;
71655;SDS011;59497;48.798;8.816;2023-04-25T19:05:27;4.35;;;2.90;;
71655;SDS011;59497;48.798;8.816;2023-04-25T19:07:52;7.87;;;4.10;;
71655;SDS011;59497;48.798;8.816;2023-04-25T19:10:17;6.43;;;3.53;;
71655;SDS011;59497;48.798;8.816;2023-04-25T19:12:42;5.43;;;3.77;;
71655;SDS011;59497;48.798;8.816;2023-04-25T19:15:09;5.93;;;3.30;;
71655;SDS011;59497;48.798;8.816;2023-04-25T19:17:35;5.60;;;3.00;;
71655;SDS011;59497;48.798;8.816;2023-04-25T19:20:00;5.73;;;3.70;;
71655;SDS011;59497;48.798;8.816;2023-04-25T19:22:26;7.23;;;4.17;;
71655;SDS011;59497;48.798;8.816;2023-04-25T19:24:51;5.10;;;3.43;;
71655;SDS011;59497;48.798;8.816;2023-04-25T19:27:16;4.03;;;3.30;;
71655;SDS011;59497;48.798;8.816;2023-04-25T19:29:42;4.90;;;3.10;;
71655;SDS011;59497;48.798;8.816;2023-04-25T19:32:11;7.47;;;3.20;;
71655;SDS011;59497;48.798;8.816;2023-04-25T19:34:37;3.97;;;2.40;;
71655;SDS011;59497;48.798;8.816;2023-04-25T19:37:02;3.00;;;2.00;;
71655;SDS011;59497;48.798;8.816;2023-04-25T19:39:29;6.47;;;3.78;;
71655;SDS011;59497;48.798;8.816;2023-04-25T19:41:57;5.22;;;2.42;;
71655;SDS011;59497;48.798;8.816;2023-04-25T19:44:23;3.60;;;2.33;;
71655;SDS011;59497;48.798;8.816;2023-04-25T19:46:48;3.53;;;2.20;;
71655;SDS011;59497;48.798;8.816;2023-04-25T19:49:13;5.07;;;2.73;;
71655;SDS011;59497;48.798;8.816;2023-04-25T19:51:39;3.73;;;2.30;;
71655;SDS011;59497;48.798;8.816;2023-04-25T19:54:04;4.20;;;2.13;;
71655;SDS011;59497;48.798;8.816;2023-04-25T19:56:29;2.97;;;1.90;;
71655;SDS011;59497;48.798;8.816;2023-04-25T19:58:55;4.33;;;2.07;;
71655;SDS011;59497;48.798;8.816;2023-04-25T20:01:22;4.15;;;2.22;;
71655;SDS011;59497;48.798;8.816;2023-04-25T20:03:47;3.13;;;1.60;;
71655;SDS011;59497;48.798;8.816;2023-04-25T20:06:15;2.70;;;1.57;;
71655;SDS011;59497;48.798;8.816;2023-04-25T20:08:40;2.63;;;1.50;;
71655;SDS011;59497;48.798;8.816;2023-04-25T20:11:06;3.25;;;1.70;;
71655;SDS011;59497;48.798;8.816;2023-04-25T20:13:31;2.33;;;1.70;;
71655;SDS011;59497;48.798;8.816;2023-04-25T20:15:57;3.70;;;1.93;;
71655;SDS011;59497;48.798;8.816;2023-04-25T20:18:22;2.77;;;1.73;;
71655;SDS011;59497;48.798;8.816;2023-04-25T20:20:48;4.78;;;2.22;;
71655;SDS011;59497;48.798;8.816;2023-04-25T20:23:13;3.07;;;1.63;;
71655;SDS011;59497;48.798;8.816;2023-04-25T20:25:38;2.93;;;1.80;;
71655;SDS011;59497;48.798;8.816;2023-04-25T20:28:04;3.75;;;1.90;;
71655;SDS011;59497;48.798;8.816;2023-04-25T20:30:30;3.50;;;2.23;;
71655;SDS011;59497;48.798;8.816;2023-04-25T20:32:56;3.97;;;2.35;;
71655;SDS011;59497;48.798;8.816;2023-04-25T20:35:21;3.67;;;2.17;;
71655;SDS011;59497;48.798;8.816;2023-04-25T20:37:47;5.70;;;2.97;;
71655;SDS011;59497;48.798;8.816;2023-04-25T20:40:12;4.07;;;2.38;;
71655;SDS011;59497;48.798;8.816;2023-04-25T20:42:38;4.33;;;2.90;;
71655;SDS011;59497;48.798;8.816;2023-04-25T20:45:03;4.57;;;2.50;;
71655;SDS011;59497;48.798;8.816;2023-04-25T20:47:31;3.90;;;2.58;;
71655;SDS011;59497;48.798;8.816;2023-04-25T20:49:57;3.77;;;2.50;;
71655;SDS011;59497;48.798;8.816;2023-04-25T20:52:23;6.45;;;3.25;;
71655;SDS011;59497;48.798;8.816;2023-04-25T20:54:48;5.77;;;3.07;;
71655;SDS011;59497;48.798;8.816;2023-04-25T20:57:14;5.93;;;2.80;;
71655;SDS011;59497;48.798;8.816;2023-04-25T20:59:40;4.43;;;3.03;;
71655;SDS011;59497;48.798;8.816;2023-04-25T21:02:05;6.63;;;3.40;;
71655;SDS011;59497;48.798;8.816;2023-04-25T21:04:32;4.88;;;3.58;;
71655;SDS011;59497;48.798;8.816;2023-04-25T21:06:57;9.60;;;4.17;;
71655;SDS011;59497;48.798;8.816;2023-04-25T21:09:24;10.50;;;5.20;;
71655;SDS011;59497;48.798;8.816;2023-04-25T21:11:49;9.97;;;4.23;;
71655;SDS011;59497;48.798;8.816;2023-04-25T21:14:15;4.40;;;3.00;;
71655;SDS011;59497;48.798;8.816;2023-04-25T21:16:40;4.70;;;3.00;;
71655;SDS011;59497;48.798;8.816;2023-04-25T21:19:06;7.60;;;3.67;;
71655;SDS011;59497;48.798;8.816;2023-04-25T21:21:31;21.37;;;7.50;;
71655;SDS011;59497;48.798;8.816;2023-04-25T21:23:57;17.57;;;6.50;;
71655;SDS011;59497;48.798;8.816;2023-04-25T21:26:22;11.93;;;5.15;;
71655;SDS011;59497;48.798;8.816;2023-04-25T21:28:47;18.00;;;7.43;;
71655;SDS011;59497;48.798;8.816;2023-04-25T21:31:13;6.70;;;3.63;;
71655;SDS011;59497;48.798;8.816;2023-04-25T21:33:38;7.97;;;4.13;;
71655;SDS011;59497;48.798;8.816;2023-04-25T21:36:04;37.97;;;13.17;;
71655;SDS011;59497;48.798;8.816;2023-04-25T21:38:29;40.63;;;14.27;;
71655;SDS011;59497;48.798;8.816;2023-04-25T21:40:54;21.40;;;7.47;;
71655;SDS011;59497;48.798;8.816;2023-04-25T21:43:19;7.30;;;3.85;;
71655;SDS011;59497;48.798;8.816;2023-04-25T21:45:45;10.35;;;4.72;;
71655;SDS011;59497;48.798;8.816;2023-04-25T21:48:10;18.87;;;6.87;;
71655;SDS011;59497;48.798;8.816;2023-04-25T21:50:35;7.78;;;4.07;;
71655;SDS011;59497;48.798;8.816;2023-04-25T21:53:01;23.50;;;8.23;;
71655;SDS011;59497;48.798;8.816;2023-04-25T21:55:26;40.47;;;13.23;;
71655;SDS011;59497;48.798;8.816;2023-04-25T21:57:52;7.50;;;4.03;;
